Aviation Digital Data Service (ADDS)

Output produced by METARs form (1206 UTC 24 February 2018)
found at http://www.aviationweather.gov/adds/metars/
 
TAF TFFR 241000Z 2412/2512 VRB02KT 9999 SCT030 
     BECMG 2412/2414 07012KT 
     PROB30 
     TEMPO 2412/2421 4000 -SHRA BKN018TCU 
     BECMG 2422/2424 VRB03KT